sensor_id;sensor_type;location;lat;lon;timestamp;P1;durP1;ratioP1;P2;durP2;ratioP2
54883;SDS011;40776;52.880;6.016;2023-05-10T00:01:09;20.05;;;10.95;;
54883;SDS011;40776;52.880;6.016;2023-05-10T00:03:36;18.80;;;10.80;;
54883;SDS011;40776;52.880;6.016;2023-05-10T00:06:02;17.63;;;10.52;;
54883;SDS011;40776;52.880;6.016;2023-05-10T00:08:28;23.73;;;12.18;;
54883;SDS011;40776;52.880;6.016;2023-05-10T00:10:54;17.67;;;10.55;;
54883;SDS011;40776;52.880;6.016;2023-05-10T00:13:20;19.45;;;11.73;;
54883;SDS011;40776;52.880;6.016;2023-05-10T00:15:46;21.17;;;11.90;;
54883;SDS011;40776;52.880;6.016;2023-05-10T00:18:12;20.85;;;10.98;;
54883;SDS011;40776;52.880;6.016;2023-05-10T00:20:39;18.92;;;10.68;;
54883;SDS011;40776;52.880;6.016;2023-05-10T00:23:05;17.70;;;9.48;;
54883;SDS011;40776;52.880;6.016;2023-05-10T00:25:31;18.17;;;9.55;;
54883;SDS011;40776;52.880;6.016;2023-05-10T00:27:57;14.27;;;8.88;;
54883;SDS011;40776;52.880;6.016;2023-05-10T00:30:23;18.27;;;9.82;;
54883;SDS011;40776;52.880;6.016;2023-05-10T00:32:49;16.52;;;9.88;;
54883;SDS011;40776;52.880;6.016;2023-05-10T00:35:16;14.68;;;9.32;;
54883;SDS011;40776;52.880;6.016;2023-05-10T00:37:42;16.55;;;8.98;;
54883;SDS011;40776;52.880;6.016;2023-05-10T00:40:08;15.90;;;9.65;;
54883;SDS011;40776;52.880;6.016;2023-05-10T00:42:35;14.65;;;9.02;;
54883;SDS011;40776;52.880;6.016;2023-05-10T00:45:01;17.17;;;8.75;;
54883;SDS011;40776;52.880;6.016;2023-05-10T00:47:27;14.27;;;8.20;;
54883;SDS011;40776;52.880;6.016;2023-05-10T00:49:53;17.23;;;9.70;;
54883;SDS011;40776;52.880;6.016;2023-05-10T00:52:20;15.95;;;9.77;;
54883;SDS011;40776;52.880;6.016;2023-05-10T00:54:49;16.73;;;9.43;;
54883;SDS011;40776;52.880;6.016;2023-05-10T00:57:15;14.65;;;9.18;;
54883;SDS011;40776;52.880;6.016;2023-05-10T00:59:41;16.95;;;9.43;;
54883;SDS011;40776;52.880;6.016;2023-05-10T01:02:07;15.60;;;8.82;;
54883;SDS011;40776;52.880;6.016;2023-05-10T01:04:33;12.63;;;8.40;;
54883;SDS011;40776;52.880;6.016;2023-05-10T01:07:00;14.77;;;8.65;;
54883;SDS011;40776;52.880;6.016;2023-05-10T01:09:26;14.18;;;8.30;;
54883;SDS011;40776;52.880;6.016;2023-05-10T01:11:53;11.07;;;6.90;;
54883;SDS011;40776;52.880;6.016;2023-05-10T01:14:19;15.02;;;9.05;;
54883;SDS011;40776;52.880;6.016;2023-05-10T01:16:46;14.30;;;9.65;;
54883;SDS011;40776;52.880;6.016;2023-05-10T01:19:21;12.82;;;8.13;;
54883;SDS011;40776;52.880;6.016;2023-05-10T01:21:49;12.88;;;8.32;;
54883;SDS011;40776;52.880;6.016;2023-05-10T01:24:38;15.13;;;8.95;;
54883;SDS011;40776;52.880;6.016;2023-05-10T01:37:52;9.60;;;7.15;;
54883;SDS011;40776;52.880;6.016;2023-05-10T01:40:26;10.60;;;6.80;;
54883;SDS011;40776;52.880;6.016;2023-05-10T01:43:04;10.07;;;7.20;;
54883;SDS011;40776;52.880;6.016;2023-05-10T01:45:35;10.73;;;7.55;;
54883;SDS011;40776;52.880;6.016;2023-05-10T01:48:06;12.18;;;7.88;;
54883;SDS011;40776;52.880;6.016;2023-05-10T01:50:34;10.68;;;7.60;;
54883;SDS011;40776;52.880;6.016;2023-05-10T01:53:01;12.38;;;8.10;;
54883;SDS011;40776;52.880;6.016;2023-05-10T01:55:32;10.98;;;8.15;;
54883;SDS011;40776;52.880;6.016;2023-05-10T01:58:06;11.57;;;8.05;;
54883;SDS011;40776;52.880;6.016;2023-05-10T02:00:33;12.48;;;7.43;;
54883;SDS011;40776;52.880;6.016;2023-05-10T02:03:01;11.20;;;8.23;;
54883;SDS011;40776;52.880;6.016;2023-05-10T02:05:29;11.32;;;8.02;;
54883;SDS011;40776;52.880;6.016;2023-05-10T02:07:57;11.52;;;7.90;;
54883;SDS011;40776;52.880;6.016;2023-05-10T02:10:23;10.05;;;7.53;;
54883;SDS011;40776;52.880;6.016;2023-05-10T02:12:49;13.07;;;8.48;;
54883;SDS011;40776;52.880;6.016;2023-05-10T02:15:18;13.00;;;8.68;;
54883;SDS011;40776;52.880;6.016;2023-05-10T02:17:46;14.43;;;8.93;;
54883;SDS011;40776;52.880;6.016;2023-05-10T02:20:12;15.63;;;9.90;;
54883;SDS011;40776;52.880;6.016;2023-05-10T02:22:39;15.52;;;9.75;;
54883;SDS011;40776;52.880;6.016;2023-05-10T02:25:06;13.82;;;9.52;;
54883;SDS011;40776;52.880;6.016;2023-05-10T02:27:32;14.55;;;9.73;;
54883;SDS011;40776;52.880;6.016;2023-05-10T02:29:59;13.77;;;9.85;;
54883;SDS011;40776;52.880;6.016;2023-05-10T02:32:27;12.00;;;9.00;;
54883;SDS011;40776;52.880;6.016;2023-05-10T02:34:54;13.70;;;9.52;;
54883;SDS011;40776;52.880;6.016;2023-05-10T02:37:21;11.93;;;8.63;;
54883;SDS011;40776;52.880;6.016;2023-05-10T02:39:48;13.75;;;9.60;;
54883;SDS011;40776;52.880;6.016;2023-05-10T02:42:18;13.07;;;9.15;;
54883;SDS011;40776;52.880;6.016;2023-05-10T02:44:48;13.65;;;9.50;;
54883;SDS011;40776;52.880;6.016;2023-05-10T02:47:14;13.73;;;9.38;;
54883;SDS011;40776;52.880;6.016;2023-05-10T02:49:41;13.63;;;8.73;;
54883;SDS011;40776;52.880;6.016;2023-05-10T02:52:07;13.27;;;8.68;;
54883;SDS011;40776;52.880;6.016;2023-05-10T02:54:41;15.02;;;8.73;;
54883;SDS011;40776;52.880;6.016;2023-05-10T02:57:10;12.43;;;8.27;;
54883;SDS011;40776;52.880;6.016;2023-05-10T02:59:36;11.70;;;8.15;;
54883;SDS011;40776;52.880;6.016;2023-05-10T03:02:03;11.88;;;8.02;;
54883;SDS011;40776;52.880;6.016;2023-05-10T03:04:29;12.85;;;7.43;;
54883;SDS011;40776;52.880;6.016;2023-05-10T03:06:55;11.50;;;7.90;;
54883;SDS011;40776;52.880;6.016;2023-05-10T03:09:21;12.60;;;8.23;;
54883;SDS011;40776;52.880;6.016;2023-05-10T03:17:30;11.32;;;7.95;;
54883;SDS011;40776;52.880;6.016;2023-05-10T03:19:56;13.23;;;8.00;;
54883;SDS011;40776;52.880;6.016;2023-05-10T03:22:28;10.75;;;6.68;;
54883;SDS011;40776;52.880;6.016;2023-05-10T03:24:56;10.93;;;7.13;;
54883;SDS011;40776;52.880;6.016;2023-05-10T03:27:23;11.82;;;6.43;;
54883;SDS011;40776;52.880;6.016;2023-05-10T03:29:50;12.68;;;7.45;;
54883;SDS011;40776;52.880;6.016;2023-05-10T03:32:16;11.35;;;6.95;;
54883;SDS011;40776;52.880;6.016;2023-05-10T03:34:43;8.00;;;5.85;;
54883;SDS011;40776;52.880;6.016;2023-05-10T03:37:09;8.55;;;6.22;;
54883;SDS011;40776;52.880;6.016;2023-05-10T03:39:35;7.88;;;6.00;;
54883;SDS011;40776;52.880;6.016;2023-05-10T03:42:01;9.13;;;6.75;;
54883;SDS011;40776;52.880;6.016;2023-05-10T03:44:27;13.27;;;6.85;;
54883;SDS011;40776;52.880;6.016;2023-05-10T03:46:53;11.63;;;7.35;;
54883;SDS011;40776;52.880;6.016;2023-05-10T03:49:20;11.73;;;7.70;;
54883;SDS011;40776;52.880;6.016;2023-05-10T03:51:46;12.88;;;7.18;;
54883;SDS011;40776;52.880;6.016;2023-05-10T03:54:12;12.25;;;7.80;;
54883;SDS011;40776;52.880;6.016;2023-05-10T03:56:38;8.50;;;5.75;;
54883;SDS011;40776;52.880;6.016;2023-05-10T03:59:04;8.75;;;6.63;;
54883;SDS011;40776;52.880;6.016;2023-05-10T04:01:34;10.70;;;6.88;;
54883;SDS011;40776;52.880;6.016;2023-05-10T04:04:00;13.05;;;7.50;;
54883;SDS011;40776;52.880;6.016;2023-05-10T04:06:26;11.90;;;7.05;;
54883;SDS011;40776;52.880;6.016;2023-05-10T04:08:52;13.63;;;8.43;;
54883;SDS011;40776;52.880;6.016;2023-05-10T04:11:18;11.35;;;7.90;;
54883;SDS011;40776;52.880;6.016;2023-05-10T04:13:47;12.57;;;8.18;;
54883;SDS011;40776;52.880;6.016;2023-05-10T04:16:13;12.45;;;7.80;;
54883;SDS011;40776;52.880;6.016;2023-05-10T04:18:39;14.70;;;8.23;;
54883;SDS011;40776;52.880;6.016;2023-05-10T04:21:10;13.48;;;7.82;;
54883;SDS011;40776;52.880;6.016;2023-05-10T04:23:37;12.48;;;6.93;;
54883;SDS011;40776;52.880;6.016;2023-05-10T04:26:03;14.27;;;7.82;;
54883;SDS011;40776;52.880;6.016;2023-05-10T04:28:29;10.63;;;7.15;;
54883;SDS011;40776;52.880;6.016;2023-05-10T04:31:05;9.95;;;6.50;;
54883;SDS011;40776;52.880;6.016;2023-05-10T04:33:31;15.15;;;7.20;;
54883;SDS011;40776;52.880;6.016;2023-05-10T04:35:57;12.38;;;8.02;;
54883;SDS011;40776;52.880;6.016;2023-05-10T04:38:24;12.77;;;8.10;;
54883;SDS011;40776;52.880;6.016;2023-05-10T04:40:50;10.13;;;7.03;;
54883;SDS011;40776;52.880;6.016;2023-05-10T04:43:16;10.98;;;7.40;;
54883;SDS011;40776;52.880;6.016;2023-05-10T04:45:42;11.25;;;6.90;;
54883;SDS011;40776;52.880;6.016;2023-05-10T04:48:08;11.57;;;7.85;;
54883;SDS011;40776;52.880;6.016;2023-05-10T04:50:34;12.07;;;7.28;;
54883;SDS011;40776;52.880;6.016;2023-05-10T04:53:00;12.30;;;7.93;;
54883;SDS011;40776;52.880;6.016;2023-05-10T04:55:26;11.82;;;7.50;;
54883;SDS011;40776;52.880;6.016;2023-05-10T04:57:52;10.73;;;7.30;;
54883;SDS011;40776;52.880;6.016;2023-05-10T05:00:21;11.85;;;7.90;;
54883;SDS011;40776;52.880;6.016;2023-05-10T05:02:48;11.40;;;7.57;;
54883;SDS011;40776;52.880;6.016;2023-05-10T05:05:14;15.48;;;7.57;;
54883;SDS011;40776;52.880;6.016;2023-05-10T05:07:40;14.40;;;7.80;;
54883;SDS011;40776;52.880;6.016;2023-05-10T05:10:06;12.00;;;8.75;;
54883;SDS011;40776;52.880;6.016;2023-05-10T05:12:32;14.15;;;8.90;;
54883;SDS011;40776;52.880;6.016;2023-05-10T05:14:58;14.52;;;8.63;;
54883;SDS011;40776;52.880;6.016;2023-05-10T05:17:25;13.52;;;8.55;;
54883;SDS011;40776;52.880;6.016;2023-05-10T05:19:51;13.38;;;8.48;;
54883;SDS011;40776;52.880;6.016;2023-05-10T05:22:17;16.27;;;9.45;;
54883;SDS011;40776;52.880;6.016;2023-05-10T05:24:44;14.13;;;9.00;;
54883;SDS011;40776;52.880;6.016;2023-05-10T05:27:10;13.63;;;9.77;;
54883;SDS011;40776;52.880;6.016;2023-05-10T05:29:36;14.15;;;8.98;;
54883;SDS011;40776;52.880;6.016;2023-05-10T05:32:02;15.10;;;9.20;;
54883;SDS011;40776;52.880;6.016;2023-05-10T05:34:28;14.32;;;8.57;;
54883;SDS011;40776;52.880;6.016;2023-05-10T05:36:54;16.48;;;9.70;;
54883;SDS011;40776;52.880;6.016;2023-05-10T05:39:20;17.77;;;10.63;;
54883;SDS011;40776;52.880;6.016;2023-05-10T05:41:47;16.67;;;9.40;;
54883;SDS011;40776;52.880;6.016;2023-05-10T05:44:13;15.52;;;10.18;;
54883;SDS011;40776;52.880;6.016;2023-05-10T05:46:39;18.85;;;10.75;;
54883;SDS011;40776;52.880;6.016;2023-05-10T05:49:05;17.15;;;10.63;;
54883;SDS011;40776;52.880;6.016;2023-05-10T05:51:31;17.25;;;10.40;;
54883;SDS011;40776;52.880;6.016;2023-05-10T05:53:57;16.98;;;10.35;;
54883;SDS011;40776;52.880;6.016;2023-05-10T05:56:24;21.58;;;11.13;;
54883;SDS011;40776;52.880;6.016;2023-05-10T05:58:50;18.17;;;9.68;;
54883;SDS011;40776;52.880;6.016;2023-05-10T06:01:16;15.95;;;9.15;;
54883;SDS011;40776;52.880;6.016;2023-05-10T06:03:46;14.17;;;9.30;;
54883;SDS011;40776;52.880;6.016;2023-05-10T06:06:12;16.50;;;7.70;;
54883;SDS011;40776;52.880;6.016;2023-05-10T06:08:38;13.60;;;8.45;;
54883;SDS011;40776;52.880;6.016;2023-05-10T06:11:04;14.68;;;8.75;;
54883;SDS011;40776;52.880;6.016;2023-05-10T06:13:30;15.32;;;8.48;;
54883;SDS011;40776;52.880;6.016;2023-05-10T06:15:57;15.60;;;7.63;;
54883;SDS011;40776;52.880;6.016;2023-05-10T06:18:23;16.35;;;7.68;;
54883;SDS011;40776;52.880;6.016;2023-05-10T06:20:49;15.25;;;8.60;;
54883;SDS011;40776;52.880;6.016;2023-05-10T06:23:16;17.60;;;6.97;;
54883;SDS011;40776;52.880;6.016;2023-05-10T06:25:42;14.20;;;7.30;;
54883;SDS011;40776;52.880;6.016;2023-05-10T06:28:09;17.92;;;7.68;;
54883;SDS011;40776;52.880;6.016;2023-05-10T06:30:35;15.18;;;8.48;;
54883;SDS011;40776;52.880;6.016;2023-05-10T06:33:02;16.63;;;7.53;;
54883;SDS011;40776;52.880;6.016;2023-05-10T06:35:28;15.73;;;8.10;;
54883;SDS011;40776;52.880;6.016;2023-05-10T06:37:54;17.77;;;8.25;;
54883;SDS011;40776;52.880;6.016;2023-05-10T06:40:20;13.95;;;7.90;;
54883;SDS011;40776;52.880;6.016;2023-05-10T06:42:47;14.27;;;7.07;;
54883;SDS011;40776;52.880;6.016;2023-05-10T06:45:13;18.20;;;8.15;;
54883;SDS011;40776;52.880;6.016;2023-05-10T06:47:40;16.98;;;7.32;;
54883;SDS011;40776;52.880;6.016;2023-05-10T06:50:07;18.98;;;7.60;;
54883;SDS011;40776;52.880;6.016;2023-05-10T06:52:33;17.85;;;8.32;;
54883;SDS011;40776;52.880;6.016;2023-05-10T06:54:59;17.30;;;7.95;;
54883;SDS011;40776;52.880;6.016;2023-05-10T06:57:25;17.50;;;9.13;;
54883;SDS011;40776;52.880;6.016;2023-05-10T06:59:51;18.05;;;9.18;;
54883;SDS011;40776;52.880;6.016;2023-05-10T07:02:18;18.73;;;10.13;;
54883;SDS011;40776;52.880;6.016;2023-05-10T07:04:44;19.40;;;9.90;;
54883;SDS011;40776;52.880;6.016;2023-05-10T07:07:10;19.48;;;9.05;;
54883;SDS011;40776;52.880;6.016;2023-05-10T07:09:36;22.42;;;10.38;;
54883;SDS011;40776;52.880;6.016;2023-05-10T07:12:02;21.95;;;10.05;;
54883;SDS011;40776;52.880;6.016;2023-05-10T07:14:28;16.13;;;8.55;;
54883;SDS011;40776;52.880;6.016;2023-05-10T07:16:54;20.08;;;10.00;;
54883;SDS011;40776;52.880;6.016;2023-05-10T07:19:20;16.27;;;8.90;;
54883;SDS011;40776;52.880;6.016;2023-05-10T07:21:46;17.23;;;10.52;;
54883;SDS011;40776;52.880;6.016;2023-05-10T07:24:13;21.15;;;10.70;;
54883;SDS011;40776;52.880;6.016;2023-05-10T07:26:39;23.00;;;10.65;;
54883;SDS011;40776;52.880;6.016;2023-05-10T07:29:05;19.65;;;10.82;;
54883;SDS011;40776;52.880;6.016;2023-05-10T07:31:31;17.92;;;9.95;;
54883;SDS011;40776;52.880;6.016;2023-05-10T07:33:57;17.25;;;10.35;;
54883;SDS011;40776;52.880;6.016;2023-05-10T07:36:23;21.23;;;10.70;;
54883;SDS011;40776;52.880;6.016;2023-05-10T07:38:49;19.38;;;10.27;;
54883;SDS011;40776;52.880;6.016;2023-05-10T07:41:15;19.27;;;10.40;;
54883;SDS011;40776;52.880;6.016;2023-05-10T07:43:41;21.80;;;12.55;;
54883;SDS011;40776;52.880;6.016;2023-05-10T07:46:07;18.60;;;11.65;;
54883;SDS011;40776;52.880;6.016;2023-05-10T07:48:35;24.05;;;12.90;;
54883;SDS011;40776;52.880;6.016;2023-05-10T07:51:01;23.40;;;11.57;;
54883;SDS011;40776;52.880;6.016;2023-05-10T07:53:27;23.65;;;12.65;;
54883;SDS011;40776;52.880;6.016;2023-05-10T07:55:57;26.10;;;14.05;;
54883;SDS011;40776;52.880;6.016;2023-05-10T07:58:23;29.52;;;14.15;;
54883;SDS011;40776;52.880;6.016;2023-05-10T08:00:49;23.90;;;12.65;;
54883;SDS011;40776;52.880;6.016;2023-05-10T08:03:15;31.42;;;13.68;;
54883;SDS011;40776;52.880;6.016;2023-05-10T08:05:41;31.17;;;13.70;;
54883;SDS011;40776;52.880;6.016;2023-05-10T08:08:07;31.35;;;14.55;;
54883;SDS011;40776;52.880;6.016;2023-05-10T08:10:34;27.90;;;12.98;;
54883;SDS011;40776;52.880;6.016;2023-05-10T08:12:59;40.08;;;14.07;;
54883;SDS011;40776;52.880;6.016;2023-05-10T08:15:26;86.80;;;20.23;;
54883;SDS011;40776;52.880;6.016;2023-05-10T08:17:52;56.80;;;17.58;;
54883;SDS011;40776;52.880;6.016;2023-05-10T08:20:18;26.02;;;7.57;;
54883;SDS011;40776;52.880;6.016;2023-05-10T08:22:46;32.15;;;6.97;;
54883;SDS011;40776;52.880;6.016;2023-05-10T08:25:12;19.90;;;5.90;;
54883;SDS011;40776;52.880;6.016;2023-05-10T08:27:39;73.13;;;12.27;;
54883;SDS011;40776;52.880;6.016;2023-05-10T08:30:05;71.07;;;9.75;;
54883;SDS011;40776;52.880;6.016;2023-05-10T08:32:31;10.77;;;3.00;;
54883;SDS011;40776;52.880;6.016;2023-05-10T08:34:57;4.80;;;2.78;;
54883;SDS011;40776;52.880;6.016;2023-05-10T08:37:23;7.22;;;2.50;;
54883;SDS011;40776;52.880;6.016;2023-05-10T08:39:50;4.18;;;2.67;;
54883;SDS011;40776;52.880;6.016;2023-05-10T08:42:16;4.40;;;2.35;;
54883;SDS011;40776;52.880;6.016;2023-05-10T08:44:45;5.47;;;3.37;;
54883;SDS011;40776;52.880;6.016;2023-05-10T08:47:13;7.85;;;3.35;;
54883;SDS011;40776;52.880;6.016;2023-05-10T08:49:42;14.05;;;4.18;;
54883;SDS011;40776;52.880;6.016;2023-05-10T08:52:09;36.22;;;6.57;;
54883;SDS011;40776;52.880;6.016;2023-05-10T08:54:37;24.95;;;5.03;;
54883;SDS011;40776;52.880;6.016;2023-05-10T08:57:03;4.35;;;2.85;;
54883;SDS011;40776;52.880;6.016;2023-05-10T08:59:29;5.22;;;3.55;;
54883;SDS011;40776;52.880;6.016;2023-05-10T09:01:57;7.75;;;4.55;;
54883;SDS011;40776;52.880;6.016;2023-05-10T09:04:24;8.45;;;5.10;;
54883;SDS011;40776;52.880;6.016;2023-05-10T09:06:50;10.23;;;5.85;;
54883;SDS011;40776;52.880;6.016;2023-05-10T09:09:16;22.20;;;6.43;;
54883;SDS011;40776;52.880;6.016;2023-05-10T09:11:43;12.13;;;7.68;;
54883;SDS011;40776;52.880;6.016;2023-05-10T09:14:09;15.75;;;7.50;;
54883;SDS011;40776;52.880;6.016;2023-05-10T09:16:37;11.88;;;7.28;;
54883;SDS011;40776;52.880;6.016;2023-05-10T09:19:03;11.73;;;7.35;;
54883;SDS011;40776;52.880;6.016;2023-05-10T09:21:30;10.52;;;7.03;;
54883;SDS011;40776;52.880;6.016;2023-05-10T09:23:56;11.40;;;7.32;;
54883;SDS011;40776;52.880;6.016;2023-05-10T09:26:22;11.18;;;6.07;;
54883;SDS011;40776;52.880;6.016;2023-05-10T09:28:53;11.40;;;7.20;;
54883;SDS011;40776;52.880;6.016;2023-05-10T09:31:19;12.25;;;7.88;;
54883;SDS011;40776;52.880;6.016;2023-05-10T09:33:45;12.38;;;7.25;;
54883;SDS011;40776;52.880;6.016;2023-05-10T09:36:12;13.63;;;7.38;;
54883;SDS011;40776;52.880;6.016;2023-05-10T09:38:48;8.40;;;5.97;;
54883;SDS011;40776;52.880;6.016;2023-05-10T09:43:43;9.18;;;5.70;;
54883;SDS011;40776;52.880;6.016;2023-05-10T09:46:09;7.63;;;5.07;;
54883;SDS011;40776;52.880;6.016;2023-05-10T09:48:43;7.35;;;3.92;;
54883;SDS011;40776;52.880;6.016;2023-05-10T09:51:09;5.18;;;3.92;;
54883;SDS011;40776;52.880;6.016;2023-05-10T09:53:36;7.05;;;3.97;;
54883;SDS011;40776;52.880;6.016;2023-05-10T09:56:02;5.25;;;3.92;;
54883;SDS011;40776;52.880;6.016;2023-05-10T09:58:29;7.85;;;4.82;;
54883;SDS011;40776;52.880;6.016;2023-05-10T10:00:55;5.68;;;4.07;;
54883;SDS011;40776;52.880;6.016;2023-05-10T10:03:21;6.97;;;3.50;;
54883;SDS011;40776;52.880;6.016;2023-05-10T10:05:49;6.53;;;3.70;;
54883;SDS011;40776;52.880;6.016;2023-05-10T10:08:17;5.68;;;4.03;;
54883;SDS011;40776;52.880;6.016;2023-05-10T10:10:43;5.35;;;3.53;;
54883;SDS011;40776;52.880;6.016;2023-05-10T10:13:10;5.65;;;3.97;;
54883;SDS011;40776;52.880;6.016;2023-05-10T10:15:36;6.75;;;3.75;;
54883;SDS011;40776;52.880;6.016;2023-05-10T10:18:02;5.65;;;3.70;;
54883;SDS011;40776;52.880;6.016;2023-05-10T10:20:29;6.97;;;3.72;;
54883;SDS011;40776;52.880;6.016;2023-05-10T10:22:55;6.93;;;3.83;;
54883;SDS011;40776;52.880;6.016;2023-05-10T10:25:21;6.20;;;3.03;;
54883;SDS011;40776;52.880;6.016;2023-05-10T10:36:05;6.75;;;4.25;;
54883;SDS011;40776;52.880;6.016;2023-05-10T10:41:31;9.77;;;4.97;;
54883;SDS011;40776;52.880;6.016;2023-05-10T10:49:31;9.23;;;5.63;;
54883;SDS011;40776;52.880;6.016;2023-05-10T10:54:58;11.32;;;6.90;;
54883;SDS011;40776;52.880;6.016;2023-05-10T10:57:25;10.82;;;6.63;;
54883;SDS011;40776;52.880;6.016;2023-05-10T10:59:51;12.20;;;6.88;;
54883;SDS011;40776;52.880;6.016;2023-05-10T11:08:06;11.38;;;7.43;;
54883;SDS011;40776;52.880;6.016;2023-05-10T11:10:32;14.30;;;7.32;;
54883;SDS011;40776;52.880;6.016;2023-05-10T11:15:37;11.73;;;7.25;;
54883;SDS011;40776;52.880;6.016;2023-05-10T11:18:19;13.52;;;8.00;;
54883;SDS011;40776;52.880;6.016;2023-05-10T11:20:52;14.48;;;8.57;;
54883;SDS011;40776;52.880;6.016;2023-05-10T11:23:18;17.35;;;9.80;;
54883;SDS011;40776;52.880;6.016;2023-05-10T11:25:46;13.73;;;9.02;;
54883;SDS011;40776;52.880;6.016;2023-05-10T11:28:13;15.55;;;9.10;;
54883;SDS011;40776;52.880;6.016;2023-05-10T11:30:40;52.67;;;12.60;;
54883;SDS011;40776;52.880;6.016;2023-05-10T11:33:06;16.88;;;9.00;;
54883;SDS011;40776;52.880;6.016;2023-05-10T11:35:39;24.40;;;10.23;;
54883;SDS011;40776;52.880;6.016;2023-05-10T11:38:12;14.85;;;8.88;;
54883;SDS011;40776;52.880;6.016;2023-05-10T11:40:39;44.50;;;9.93;;
54883;SDS011;40776;52.880;6.016;2023-05-10T11:43:05;40.92;;;9.73;;
54883;SDS011;40776;52.880;6.016;2023-05-10T11:45:32;13.40;;;7.40;;
54883;SDS011;40776;52.880;6.016;2023-05-10T11:47:58;23.10;;;8.30;;
54883;SDS011;40776;52.880;6.016;2023-05-10T11:50:25;14.50;;;7.38;;
54883;SDS011;40776;52.880;6.016;2023-05-10T11:52:51;39.53;;;9.93;;
54883;SDS011;40776;52.880;6.016;2023-05-10T11:55:17;49.70;;;12.05;;
54883;SDS011;40776;52.880;6.016;2023-05-10T11:57:43;21.00;;;9.57;;
54883;SDS011;40776;52.880;6.016;2023-05-10T12:00:11;77.65;;;14.43;;
54883;SDS011;40776;52.880;6.016;2023-05-10T12:02:37;12.57;;;7.70;;
54883;SDS011;40776;52.880;6.016;2023-05-10T12:05:04;47.95;;;9.40;;
54883;SDS011;40776;52.880;6.016;2023-05-10T12:07:30;45.47;;;11.23;;
54883;SDS011;40776;52.880;6.016;2023-05-10T12:10:04;32.38;;;9.88;;
54883;SDS011;40776;52.880;6.016;2023-05-10T12:15:07;11.32;;;7.10;;
54883;SDS011;40776;52.880;6.016;2023-05-10T12:17:37;10.90;;;7.57;;
54883;SDS011;40776;52.880;6.016;2023-05-10T12:20:16;10.40;;;7.32;;
54883;SDS011;40776;52.880;6.016;2023-05-10T12:22:46;12.95;;;8.05;;
54883;SDS011;40776;52.880;6.016;2023-05-10T12:25:13;10.90;;;7.43;;
54883;SDS011;40776;52.880;6.016;2023-05-10T12:27:39;10.65;;;6.18;;
54883;SDS011;40776;52.880;6.016;2023-05-10T12:30:05;10.43;;;6.97;;
54883;SDS011;40776;52.880;6.016;2023-05-10T12:32:38;12.73;;;8.55;;
54883;SDS011;40776;52.880;6.016;2023-05-10T12:35:04;14.32;;;8.98;;
54883;SDS011;40776;52.880;6.016;2023-05-10T12:37:30;15.23;;;9.15;;
54883;SDS011;40776;52.880;6.016;2023-05-10T12:40:00;14.00;;;8.00;;
54883;SDS011;40776;52.880;6.016;2023-05-10T12:42:28;12.40;;;8.15;;
54883;SDS011;40776;52.880;6.016;2023-05-10T12:44:57;12.45;;;7.57;;
54883;SDS011;40776;52.880;6.016;2023-05-10T12:47:23;10.75;;;6.60;;
54883;SDS011;40776;52.880;6.016;2023-05-10T12:49:49;13.20;;;7.78;;
54883;SDS011;40776;52.880;6.016;2023-05-10T12:52:16;11.20;;;7.20;;
54883;SDS011;40776;52.880;6.016;2023-05-10T12:54:42;12.63;;;6.40;;
54883;SDS011;40776;52.880;6.016;2023-05-10T12:57:08;10.50;;;7.30;;
54883;SDS011;40776;52.880;6.016;2023-05-10T12:59:34;12.73;;;8.48;;
54883;SDS011;40776;52.880;6.016;2023-05-10T13:02:00;14.07;;;8.70;;
54883;SDS011;40776;52.880;6.016;2023-05-10T13:04:26;11.20;;;7.07;;
54883;SDS011;40776;52.880;6.016;2023-05-10T13:06:52;12.10;;;7.40;;
54883;SDS011;40776;52.880;6.016;2023-05-10T13:09:23;10.50;;;7.50;;
54883;SDS011;40776;52.880;6.016;2023-05-10T13:11:50;11.10;;;7.68;;
54883;SDS011;40776;52.880;6.016;2023-05-10T13:14:16;11.98;;;7.28;;
54883;SDS011;40776;52.880;6.016;2023-05-10T13:16:42;10.48;;;6.80;;
54883;SDS011;40776;52.880;6.016;2023-05-10T13:19:08;11.30;;;6.88;;
54883;SDS011;40776;52.880;6.016;2023-05-10T13:21:34;9.75;;;6.47;;
54883;SDS011;40776;52.880;6.016;2023-05-10T13:24:00;11.13;;;6.15;;
54883;SDS011;40776;52.880;6.016;2023-05-10T13:26:26;10.82;;;6.22;;
54883;SDS011;40776;52.880;6.016;2023-05-10T13:28:53;9.48;;;5.82;;
54883;SDS011;40776;52.880;6.016;2023-05-10T13:31:20;7.50;;;5.18;;
54883;SDS011;40776;52.880;6.016;2023-05-10T13:33:46;10.45;;;5.50;;
54883;SDS011;40776;52.880;6.016;2023-05-10T13:36:12;7.43;;;4.47;;
54883;SDS011;40776;52.880;6.016;2023-05-10T13:38:38;6.93;;;4.13;;
54883;SDS011;40776;52.880;6.016;2023-05-10T13:41:04;5.78;;;4.10;;
54883;SDS011;40776;52.880;6.016;2023-05-10T13:43:30;7.95;;;4.90;;
54883;SDS011;40776;52.880;6.016;2023-05-10T13:45:56;8.45;;;4.68;;
54883;SDS011;40776;52.880;6.016;2023-05-10T13:48:22;6.03;;;4.07;;
54883;SDS011;40776;52.880;6.016;2023-05-10T13:50:48;6.20;;;4.07;;
54883;SDS011;40776;52.880;6.016;2023-05-10T13:53:14;5.90;;;3.38;;
54883;SDS011;40776;52.880;6.016;2023-05-10T13:55:41;7.85;;;3.95;;
54883;SDS011;40776;52.880;6.016;2023-05-10T13:58:07;5.30;;;3.75;;
54883;SDS011;40776;52.880;6.016;2023-05-10T14:00:33;6.82;;;3.47;;
54883;SDS011;40776;52.880;6.016;2023-05-10T14:02:59;6.40;;;3.03;;
54883;SDS011;40776;52.880;6.016;2023-05-10T14:05:25;43.75;;;6.38;;
54883;SDS011;40776;52.880;6.016;2023-05-10T14:07:51;43.33;;;6.85;;
54883;SDS011;40776;52.880;6.016;2023-05-10T14:10:17;22.08;;;4.72;;
54883;SDS011;40776;52.880;6.016;2023-05-10T14:12:43;11.73;;;3.92;;
54883;SDS011;40776;52.880;6.016;2023-05-10T14:15:09;4.07;;;2.70;;
54883;SDS011;40776;52.880;6.016;2023-05-10T14:17:36;4.53;;;2.65;;
54883;SDS011;40776;52.880;6.016;2023-05-10T14:20:02;3.50;;;2.47;;
54883;SDS011;40776;52.880;6.016;2023-05-10T14:22:29;3.05;;;1.90;;
54883;SDS011;40776;52.880;6.016;2023-05-10T14:24:55;3.70;;;1.70;;
54883;SDS011;40776;52.880;6.016;2023-05-10T14:27:21;3.67;;;1.83;;
54883;SDS011;40776;52.880;6.016;2023-05-10T14:29:48;10.60;;;2.10;;
54883;SDS011;40776;52.880;6.016;2023-05-10T14:32:14;3.00;;;1.98;;
54883;SDS011;40776;52.880;6.016;2023-05-10T14:34:40;3.78;;;2.10;;
54883;SDS011;40776;52.880;6.016;2023-05-10T14:37:06;4.72;;;2.70;;
54883;SDS011;40776;52.880;6.016;2023-05-10T14:39:32;5.43;;;2.85;;
54883;SDS011;40776;52.880;6.016;2023-05-10T14:41:58;5.60;;;3.28;;
54883;SDS011;40776;52.880;6.016;2023-05-10T14:44:24;5.97;;;3.10;;
54883;SDS011;40776;52.880;6.016;2023-05-10T14:46:50;4.50;;;2.90;;
54883;SDS011;40776;52.880;6.016;2023-05-10T14:49:16;4.43;;;2.63;;
54883;SDS011;40776;52.880;6.016;2023-05-10T14:51:42;4.35;;;2.30;;
54883;SDS011;40776;52.880;6.016;2023-05-10T14:54:09;4.85;;;2.90;;
54883;SDS011;40776;52.880;6.016;2023-05-10T14:56:35;5.25;;;3.05;;
54883;SDS011;40776;52.880;6.016;2023-05-10T14:59:02;3.70;;;2.25;;
54883;SDS011;40776;52.880;6.016;2023-05-10T15:01:29;3.78;;;2.65;;
54883;SDS011;40776;52.880;6.016;2023-05-10T15:03:56;6.07;;;2.65;;
54883;SDS011;40776;52.880;6.016;2023-05-10T15:06:23;4.60;;;2.55;;
54883;SDS011;40776;52.880;6.016;2023-05-10T15:08:50;5.35;;;3.10;;
54883;SDS011;40776;52.880;6.016;2023-05-10T15:11:16;5.47;;;3.45;;
54883;SDS011;40776;52.880;6.016;2023-05-10T15:13:42;5.70;;;3.28;;
54883;SDS011;40776;52.880;6.016;2023-05-10T15:16:08;5.85;;;3.50;;
54883;SDS011;40776;52.880;6.016;2023-05-10T15:18:35;8.85;;;3.70;;
54883;SDS011;40776;52.880;6.016;2023-05-10T15:21:01;8.32;;;3.97;;
54883;SDS011;40776;52.880;6.016;2023-05-10T15:23:31;7.57;;;4.75;;